Time;durP1;ratioP1;P1;durP2;ratioP2;P2;SDS_P1;SDS_P2;PMS_P1;PMS_P2;Temp;Humidity;BMP_temperature;BMP_pressure;BME280_temperature;BME280_humidity;BME280_pressure;Samples;Min_cycle;Max_cycle;Signal;HPM_P1;HPM_P2
2022/03/24 00:00:09;;;;;;;11.82;5.32;;;8.10;99.90;;;;;;5090850;28;20485;-75
2022/03/24 00:02:35;;;;;;;8.93;5.57;;;8.20;99.90;;;;;;5085673;28;20020;-75
2022/03/24 00:05:01;;;;;;;8.88;5.03;;;8.20;99.90;;;;;;5087921;28;20108;-75
2022/03/24 00:07:28;;;;;;;6.43;4.75;;;8.10;99.90;;;;;;5071260;28;20024;-75
2022/03/24 00:09:54;;;;;;;9.02;5.20;;;8.10;99.90;;;;;;5085611;28;20107;-76
2022/03/24 00:12:21;;;;;;;6.55;5.25;;;8.10;99.90;;;;;;5082320;28;20549;-75
2022/03/24 00:14:47;;;;;;;13.18;5.47;;;8.10;99.90;;;;;;5090910;28;20048;-75
2022/03/24 00:17:13;;;;;;;10.63;5.18;;;8.10;99.90;;;;;;5089970;28;20020;-75
2022/03/24 00:19:39;;;;;;;7.95;5.72;;;8.10;99.90;;;;;;5091462;28;20028;-77
2022/03/24 00:22:05;;;;;;;10.50;6.15;;;8.10;99.90;;;;;;5090609;28;20394;-76
2022/03/24 00:24:30;;;;;;;9.23;4.97;;;8.10;99.90;;;;;;5082093;28;20099;-76
2022/03/24 00:26:56;;;;;;;10.02;5.38;;;8.00;99.90;;;;;;5090950;28;20485;-76
2022/03/24 00:29:22;;;;;;;9.30;5.38;;;7.90;99.90;;;;;;5090609;28;20052;-76
2022/03/24 00:31:48;;;;;;;8.57;5.35;;;7.90;99.90;;;;;;5091544;28;20016;-76
2022/03/24 00:34:13;;;;;;;10.43;5.93;;;8.00;99.90;;;;;;5090471;28;20149;-76
2022/03/24 00:36:39;;;;;;;6.90;5.50;;;7.90;99.90;;;;;;5090081;28;20024;-76
2022/03/24 00:39:06;;;;;;;7.90;5.25;;;7.90;99.90;;;;;;5090052;28;20497;-76
2022/03/24 00:41:32;;;;;;;9.80;5.50;;;7.90;99.90;;;;;;5074478;28;20031;-76
2022/03/24 00:43:58;;;;;;;8.27;5.32;;;7.90;99.90;;;;;;5091437;28;20028;-76
2022/03/24 00:46:24;;;;;;;8.13;5.78;;;7.90;99.90;;;;;;5080311;28;20028;-76
2022/03/24 00:48:51;;;;;;;8.32;5.55;;;7.90;99.90;;;;;;5084470;28;20024;-76
2022/03/24 00:51:18;;;;;;;7.18;4.95;;;7.90;99.90;;;;;;5082953;28;20358;-76
2022/03/24 00:53:44;;;;;;;8.00;5.07;;;7.80;99.90;;;;;;5075664;28;20031;-76
2022/03/24 00:56:10;;;;;;;7.68;4.95;;;7.80;99.90;;;;;;5089561;28;20024;-76
2022/03/24 00:58:38;;;;;;;7.70;5.10;;;7.90;99.90;;;;;;5089604;28;20030;-76
2022/03/24 01:01:04;;;;;;;7.88;4.88;;;7.90;99.90;;;;;;5089868;28;20036;-76
2022/03/24 01:03:30;;;;;;;8.05;5.45;;;7.90;99.90;;;;;;5089701;28;20016;-76
2022/03/24 01:05:57;;;;;;;9.93;5.22;;;7.90;99.90;;;;;;5085320;28;20498;-76
2022/03/24 01:08:23;;;;;;;9.80;5.38;;;7.80;99.90;;;;;;5088713;28;20046;-76
2022/03/24 01:10:48;;;;;;;7.38;5.13;;;7.80;99.90;;;;;;5089959;28;20552;-76
2022/03/24 01:13:15;;;;;;;8.27;5.50;;;7.80;99.90;;;;;;5089930;28;20036;-76
2022/03/24 01:15:45;;;;;;;7.63;5.43;;;7.90;99.90;;;;;;5080014;28;20028;-76
2022/03/24 01:18:14;;;;;;;8.52;5.05;;;7.80;99.90;;;;;;5088819;28;20058;-77
2022/03/24 01:20:41;;;;;;;6.97;5.55;;;7.90;99.90;;;;;;5089530;28;20232;-76
2022/03/24 01:23:08;;;;;;;7.88;5.70;;;7.80;99.90;;;;;;5074142;28;20023;-76
2022/03/24 01:25:33;;;;;;;10.13;5.63;;;7.80;99.90;;;;;;5090122;28;20047;-76
2022/03/24 01:28:00;;;;;;;8.18;5.70;;;7.80;99.90;;;;;;5089749;28;20497;-76
2022/03/24 01:30:25;;;;;;;7.00;5.70;;;7.70;99.90;;;;;;5087915;28;20032;-76
2022/03/24 01:32:51;;;;;;;13.95;6.03;;;7.70;99.90;;;;;;5089795;28;20104;-76
2022/03/24 01:35:18;;;;;;;7.60;4.70;;;7.70;99.90;;;;;;5089986;28;20035;-77
2022/03/24 01:37:44;;;;;;;8.15;5.40;;;7.70;99.90;;;;;;5090443;28;20103;-76
2022/03/24 01:40:11;;;;;;;8.60;5.10;;;7.70;99.90;;;;;;5089356;28;20569;-76
2022/03/24 01:42:38;;;;;;;8.82;5.00;;;7.70;99.90;;;;;;5085655;28;20486;-76
2022/03/24 01:45:06;;;;;;;11.30;5.88;;;7.80;99.90;;;;;;5081615;28;20031;-76
2022/03/24 01:47:32;;;;;;;8.05;5.63;;;7.60;99.90;;;;;;5089554;28;20148;-76
2022/03/24 01:49:58;;;;;;;6.47;4.63;;;7.60;99.90;;;;;;5081928;28;20142;-76
2022/03/24 01:52:25;;;;;;;7.28;4.82;;;7.60;99.90;;;;;;5089327;28;20131;-76
2022/03/24 01:54:55;;;;;;;10.65;5.45;;;7.60;99.90;;;;;;5084979;28;20043;-77
2022/03/24 01:57:22;;;;;;;9.02;5.05;;;7.70;99.90;;;;;;5088168;28;20028;-75
2022/03/24 01:59:51;;;;;;;10.05;5.18;;;7.60;99.90;;;;;;5083652;28;20063;-76
2022/03/24 02:02:18;;;;;;;10.43;5.68;;;7.60;99.90;;;;;;5087912;28;20023;-76
2022/03/24 02:04:44;;;;;;;7.13;5.57;;;7.60;99.90;;;;;;5088929;28;20035;-76
2022/03/24 02:07:11;;;;;;;10.82;5.65;;;7.60;99.90;;;;;;5089344;28;20032;-76
2022/03/24 02:09:38;;;;;;;7.63;4.82;;;7.70;99.90;;;;;;5080970;28;20024;-76
2022/03/24 02:12:08;;;;;;;7.28;4.82;;;7.60;99.90;;;;;;5080113;28;20152;-76
2022/03/24 02:14:34;;;;;;;9.35;5.18;;;7.60;99.90;;;;;;5087968;28;20046;-76
2022/03/24 02:17:01;;;;;;;9.65;5.60;;;7.60;99.90;;;;;;5094381;28;20035;-76
2022/03/24 02:19:28;;;;;;;7.97;6.18;;;7.50;99.90;;;;;;5092187;28;20028;-76
2022/03/24 02:21:56;;;;;;;8.02;5.80;;;7.50;99.90;;;;;;5092958;28;20023;-76
2022/03/24 02:24:25;;;;;;;8.05;5.70;;;7.50;99.90;;;;;;5085122;28;20153;-76
2022/03/24 02:26:52;;;;;;;7.28;5.25;;;7.50;99.90;;;;;;5079745;28;20027;-76
2022/03/24 02:29:19;;;;;;;11.40;6.50;;;7.40;99.90;;;;;;5093160;28;20044;-77
2022/03/24 02:31:49;;;;;;;9.80;5.72;;;7.50;99.90;;;;;;5093658;28;20099;-76
2022/03/24 02:37:09;;;;;;;7.03;5.30;;;7.50;99.90;;;;;;5088974;28;20031;-76
2022/03/24 02:39:40;;;;;;;8.60;5.45;;;7.50;99.90;;;;;;5084151;28;20028;-76
2022/03/24 02:42:14;;;;;;;9.98;5.45;;;7.50;99.90;;;;;;5092794;28;20035;-77
2022/03/24 02:44:46;;;;;;;7.82;5.18;;;7.50;99.90;;;;;;5092818;28;20035;-76
2022/03/24 02:47:12;;;;;;;;;;;7.60;99.90;;;;;;5093114;28;20040;-76
2022/03/24 02:49:39;;;;;;;7.78;5.25;;;7.50;99.90;;;;;;5086143;28;19900;-76
2022/03/24 02:52:06;;;;;;;6.35;5.43;;;7.40;99.90;;;;;;5083874;28;20048;-76
2022/03/24 02:54:32;;;;;;;7.72;5.30;;;7.40;99.90;;;;;;5092492;28;20035;-76
2022/03/24 02:56:59;;;;;;;9.13;6.03;;;7.40;99.90;;;;;;5083778;28;20029;-76
2022/03/24 02:59:25;;;;;;;13.50;6.20;;;7.40;99.90;;;;;;5091691;28;20039;-76
2022/03/24 03:01:53;;;;;;;8.98;5.65;;;7.60;99.90;;;;;;5093420;28;20013;-76
2022/03/24 03:04:20;;;;;;;9.90;6.00;;;7.50;99.90;;;;;;5092117;28;20028;-76
2022/03/24 03:06:46;;;;;;;9.27;6.13;;;7.40;99.90;;;;;;5091936;28;20019;-76
2022/03/24 03:09:16;;;;;;;7.85;5.38;;;7.40;99.90;;;;;;5092083;28;20115;-76
2022/03/24 03:11:45;;;;;;;9.15;6.32;;;7.50;99.90;;;;;;5092028;28;20012;-76
2022/03/24 03:14:12;;;;;;;7.32;5.63;;;7.50;99.90;;;;;;5092611;28;20028;-76
2022/03/24 03:16:39;;;;;;;9.18;6.30;;;7.40;99.90;;;;;;5091687;28;20174;-76
2022/03/24 03:19:04;;;;;;;11.32;6.85;;;7.50;99.90;;;;;;5091685;28;20117;-76
2022/03/24 03:21:30;;;;;;;8.43;5.85;;;7.30;99.90;;;;;;5083387;28;20051;-76
2022/03/24 03:23:56;;;;;;;8.82;6.03;;;7.40;99.90;;;;;;5091960;28;20032;-77
2022/03/24 03:26:23;;;;;;;9.95;6.13;;;7.40;99.90;;;;;;5089400;28;20073;-76
2022/03/24 03:28:52;;;;;;;7.22;6.10;;;7.30;99.90;;;;;;5089920;28;20103;-76
2022/03/24 03:31:22;;;;;;;7.88;6.22;;;7.40;99.90;;;;;;5090485;28;20060;-76
2022/03/24 03:33:50;;;;;;;10.48;6.10;;;7.30;99.90;;;;;;5086245;28;20024;-76
2022/03/24 03:36:20;;;;;;;8.70;5.70;;;7.30;99.90;;;;;;5091392;28;20024;-76
2022/03/24 03:38:47;;;;;;;10.50;6.60;;;7.30;99.90;;;;;;5091779;28;20035;-76
2022/03/24 03:41:14;;;;;;;10.55;6.65;;;7.30;99.90;;;;;;5090439;28;20486;-76
2022/03/24 03:43:43;;;;;;;9.10;6.10;;;7.30;99.90;;;;;;5092424;28;20058;-76
2022/03/24 03:46:10;;;;;;;12.98;6.10;;;7.40;99.90;;;;;;5082132;28;20132;-76
2022/03/24 03:48:37;;;;;;;13.18;6.22;;;7.30;99.90;;;;;;5087413;28;20082;-76
2022/03/24 03:51:04;;;;;;;10.98;5.90;;;7.40;99.90;;;;;;5088245;28;20028;-76
2022/03/24 03:53:30;;;;;;;8.82;6.13;;;7.40;99.90;;;;;;5090019;28;20044;-76
2022/03/24 03:55:55;;;;;;;9.50;6.20;;;7.30;99.90;;;;;;5090984;28;20495;-76
2022/03/24 03:58:21;;;;;;;8.35;5.60;;;7.30;99.90;;;;;;5086122;28;20476;-76
2022/03/24 04:00:52;;;;;;;12.57;6.47;;;7.30;99.90;;;;;;5081308;28;20016;-76
2022/03/24 04:03:18;;;;;;;;;;;7.40;99.90;;;;;;5076548;28;20032;-76
2022/03/24 04:05:44;;;;;;;9.20;6.57;;;7.30;99.90;;;;;;5090800;28;19912;-76
2022/03/24 04:08:11;;;;;;;10.98;5.78;;;7.30;99.90;;;;;;5091267;28;20077;-76
2022/03/24 04:10:38;;;;;;;8.60;5.78;;;7.20;99.90;;;;;;5091780;28;20039;-77
2022/03/24 04:13:06;;;;;;;10.13;6.13;;;7.20;99.90;;;;;;5082287;28;20071;-76
2022/03/24 04:15:33;;;;;;;12.82;6.55;;;7.20;99.90;;;;;;5090761;28;20481;-76
2022/03/24 04:18:00;;;;;;;8.60;6.07;;;7.20;99.90;;;;;;5083222;28;20392;-76
2022/03/24 04:20:26;;;;;;;9.00;6.70;;;7.20;99.90;;;;;;5089742;28;20109;-76
2022/03/24 04:22:53;;;;;;;10.70;7.18;;;7.10;99.90;;;;;;5090836;28;20126;-76
2022/03/24 04:25:20;;;;;;;11.02;5.80;;;7.20;99.90;;;;;;5090455;28;20035;-76
2022/03/24 04:27:47;;;;;;;12.35;6.85;;;7.20;99.90;;;;;;5090919;28;20020;-77
2022/03/24 04:30:14;;;;;;;11.40;6.13;;;7.20;99.90;;;;;;5085670;28;20090;-76
2022/03/24 04:32:40;;;;;;;12.45;6.60;;;7.30;99.90;;;;;;5074170;28;20196;-76
2022/03/24 04:35:07;;;;;;;9.38;6.60;;;7.30;99.90;;;;;;5074610;28;20537;-77
2022/03/24 04:37:33;;;;;;;15.82;6.50;;;7.20;99.90;;;;;;5091142;28;20020;-76
2022/03/24 04:39:59;;;;;;;10.45;6.25;;;7.20;99.90;;;;;;5090384;28;20447;-76
2022/03/24 04:42:25;;;;;;;9.80;6.60;;;7.30;99.90;;;;;;5090421;28;20024;-76
2022/03/24 04:44:51;;;;;;;9.70;6.55;;;7.30;99.90;;;;;;5083101;28;20025;-76
2022/03/24 04:47:17;;;;;;;14.30;7.03;;;7.20;99.90;;;;;;5088337;28;20410;-76
2022/03/24 04:49:43;;;;;;;11.10;6.85;;;7.20;99.90;;;;;;5083758;28;20081;-76
2022/03/24 04:52:09;;;;;;;9.75;6.40;;;7.30;99.90;;;;;;5090087;28;20052;-76
2022/03/24 04:54:35;;;;;;;11.52;6.55;;;7.30;99.90;;;;;;5088899;28;20063;-76
2022/03/24 04:57:01;;;;;;;11.40;6.68;;;7.20;99.90;;;;;;5090182;28;20110;-76
2022/03/24 04:59:27;;;;;;;7.63;5.72;;;7.20;99.90;;;;;;5088987;28;20673;-76
2022/03/24 05:01:53;;;;;;;9.93;6.45;;;7.10;99.90;;;;;;5091315;28;20016;-76
2022/03/24 05:04:19;;;;;;;9.68;6.43;;;7.10;99.90;;;;;;5090149;28;20063;-76
2022/03/24 05:06:44;;;;;;;10.35;6.28;;;7.20;99.90;;;;;;5088104;28;20027;-76
2022/03/24 05:09:12;;;;;;;9.55;6.97;;;7.20;99.90;;;;;;5080532;28;20417;-76
2022/03/24 05:11:39;;;;;;;8.40;6.15;;;7.10;99.90;;;;;;5090173;28;20069;-75
2022/03/24 05:14:05;;;;;;;9.60;6.60;;;7.10;99.90;;;;;;5090983;28;20034;-76
2022/03/24 05:16:31;;;;;;;8.93;6.20;;;7.10;99.90;;;;;;5080342;28;20108;-76
2022/03/24 05:18:57;;;;;;;9.85;6.05;;;7.10;99.90;;;;;;5089916;28;20519;-76
2022/03/24 05:21:23;;;;;;;11.13;6.25;;;7.10;99.90;;;;;;5089475;28;20024;-76
2022/03/24 05:23:48;;;;;;;12.60;7.65;;;7.10;99.90;;;;;;5090086;28;20454;-76
2022/03/24 05:26:15;;;;;;;9.70;6.22;;;7.10;99.90;;;;;;5089962;28;20480;-76
2022/03/24 05:28:41;;;;;;;10.60;5.68;;;7.10;99.90;;;;;;5090756;28;20020;-76
2022/03/24 05:31:07;;;;;;;9.20;5.78;;;7.10;99.90;;;;;;5089741;28;20024;-76
2022/03/24 05:33:33;;;;;;;8.82;5.80;;;7.10;99.90;;;;;;5082016;28;20044;-76
2022/03/24 05:35:59;;;;;;;8.68;6.40;;;7.10;99.90;;;;;;5068335;28;20078;-76
2022/03/24 05:38:26;;;;;;;9.10;5.85;;;7.20;99.90;;;;;;5088642;28;20086;-76
2022/03/24 05:40:52;;;;;;;10.88;6.13;;;7.20;99.90;;;;;;5090890;28;20024;-76
2022/03/24 05:43:18;;;;;;;6.28;4.95;;;7.00;99.90;;;;;;5089515;28;20076;-76
2022/03/24 05:45:43;;;;;;;6.93;5.30;;;7.10;99.90;;;;;;5088063;28;20024;-76
2022/03/24 05:48:09;;;;;;;12.98;6.28;;;7.00;99.90;;;;;;5089622;28;20078;-76
2022/03/24 05:50:35;;;;;;;9.23;5.28;;;7.00;99.90;;;;;;5078624;28;20029;-76
2022/03/24 05:53:01;;;;;;;8.45;5.43;;;7.00;99.90;;;;;;5090501;28;20135;-76
2022/03/24 05:55:27;;;;;;;7.80;5.75;;;6.90;99.90;;;;;;5090959;28;20088;-76
2022/03/24 05:57:53;;;;;;;8.55;5.57;;;7.00;99.90;;;;;;5093404;28;20020;-76
2022/03/24 06:00:19;;;;;;;6.53;4.57;;;7.00;99.90;;;;;;5093232;28;20073;-76
2022/03/24 06:02:45;;;;;;;7.72;5.05;;;7.10;99.90;;;;;;5092462;28;20457;-76
2022/03/24 06:05:12;;;;;;;7.65;4.93;;;7.00;99.90;;;;;;5074127;28;20021;-76
2022/03/24 06:07:39;;;;;;;6.55;4.90;;;7.00;99.90;;;;;;5094459;28;20015;-76
2022/03/24 06:10:07;;;;;;;8.10;4.70;;;7.10;99.90;;;;;;5092912;28;20141;-76
2022/03/24 06:12:34;;;;;;;7.88;5.30;;;7.10;99.90;;;;;;5093224;28;20022;-76
2022/03/24 06:15:00;;;;;;;8.25;5.43;;;7.20;99.90;;;;;;5092106;28;20028;-76
2022/03/24 06:17:26;;;;;;;6.47;4.97;;;7.20;99.90;;;;;;5092084;28;20036;-76
2022/03/24 06:19:53;;;;;;;7.30;4.75;;;7.20;99.90;;;;;;5094269;28;20485;-76
2022/03/24 06:22:19;;;;;;;7.75;5.38;;;7.20;99.90;;;;;;5093022;28;20105;-76
2022/03/24 06:24:45;;;;;;;9.90;6.55;;;7.30;99.90;;;;;;5093066;28;20382;-76
2022/03/24 06:27:11;;;;;;;9.93;5.82;;;7.30;99.90;;;;;;5093031;28;20465;-76
2022/03/24 06:29:36;;;;;;;7.47;5.30;;;7.50;99.90;;;;;;5091970;28;20035;-76
2022/03/24 06:32:03;;;;;;;8.68;4.80;;;7.70;99.90;;;;;;5094116;28;20028;-76
2022/03/24 06:34:29;;;;;;;7.47;5.70;;;7.60;99.90;;;;;;5087432;28;20065;-76
2022/03/24 06:36:55;;;;;;;6.15;4.78;;;7.60;99.90;;;;;;5092458;28;20036;-76
2022/03/24 06:39:22;;;;;;;6.18;4.30;;;7.70;99.90;;;;;;5092473;28;20034;-76
2022/03/24 06:41:48;;;;;;;6.35;4.70;;;7.80;99.90;;;;;;5092527;28;20031;-76
2022/03/24 06:44:14;;;;;;;8.05;4.85;;;7.80;99.90;;;;;;5092027;28;20085;-76
2022/03/24 06:46:40;;;;;;;8.20;5.47;;;7.90;99.90;;;;;;5086303;28;20347;-76
2022/03/24 06:49:06;;;;;;;6.13;4.50;;;8.00;99.90;;;;;;5085536;28;20021;-76
2022/03/24 06:51:33;;;;;;;7.07;5.10;;;8.00;99.90;;;;;;5092175;28;20031;-76
2022/03/24 06:53:59;;;;;;;7.03;5.43;;;8.00;99.90;;;;;;5092388;28;20028;-77
2022/03/24 06:56:24;;;;;;;6.72;5.35;;;8.30;99.90;;;;;;5092596;28;20062;-76
2022/03/24 06:58:51;;;;;;;9.48;6.18;;;8.40;99.90;;;;;;5093618;28;20024;-76
2022/03/24 07:01:17;;;;;;;9.55;5.50;;;8.40;99.90;;;;;;5091579;28;20084;-76
2022/03/24 07:03:47;;;;;;;5.15;4.55;;;8.60;99.90;;;;;;5091801;28;20016;-76
2022/03/24 07:06:13;;;;;;;6.82;5.07;;;9.10;99.90;;;;;;5086557;28;20107;-76
2022/03/24 07:08:39;;;;;;;7.70;5.18;;;10.10;99.90;;;;;;5091046;28;20047;-76
2022/03/24 07:11:06;;;;;;;8.23;5.55;;;11.10;99.90;;;;;;5093047;28;20024;-76
2022/03/24 07:13:32;;;;;;;8.00;5.90;;;11.80;99.90;;;;;;5092736;28;20028;-77
2022/03/24 07:15:58;;;;;;;9.00;5.40;;;14.90;97.40;;;;;;5092034;28;20036;-76
2022/03/24 07:18:24;;;;;;;6.97;5.45;;;16.90;93.90;;;;;;5091862;28;20069;-77
2022/03/24 07:20:50;;;;;;;7.82;4.38;;;17.40;92.20;;;;;;5091878;28;20032;-77
2022/03/24 07:23:16;;;;;;;7.70;5.82;;;18.20;90.70;;;;;;5092232;28;20024;-77
2022/03/24 07:25:42;;;;;;;8.80;5.88;;;18.70;89.90;;;;;;5073804;28;20032;-76
2022/03/24 07:28:10;;;;;;;7.78;5.97;;;18.40;89.60;;;;;;5076093;28;20028;-77
2022/03/24 07:30:36;;;;;;;7.25;5.30;;;19.30;88.00;;;;;;5082920;28;20515;-76
2022/03/24 07:33:02;;;;;;;8.35;5.60;;;19.60;86.80;;;;;;5092063;28;20103;-77
2022/03/24 07:35:33;;;;;;;8.80;5.75;;;20.00;85.20;;;;;;5091824;28;20040;-77
2022/03/24 07:38:00;;;;;;;7.40;5.43;;;20.00;84.70;;;;;;5091340;28;20032;-77
2022/03/24 07:40:26;;;;;;;9.00;6.03;;;20.40;83.00;;;;;;5091339;28;20036;-77
2022/03/24 07:42:53;;;;;;;9.00;6.65;;;19.50;84.60;;;;;;5085366;28;20020;-76
2022/03/24 07:45:20;;;;;;;9.10;5.43;;;19.90;83.70;;;;;;5081659;28;20028;-76
2022/03/24 07:48:07;;;;;;;10.82;6.07;;;20.00;82.70;;;;;;5091419;28;20040;-77
2022/03/24 07:50:33;;;;;;;7.30;5.25;;;19.40;84.20;;;;;;5084121;28;20035;-77
2022/03/24 07:53:14;;;;;;;6.72;5.60;;;19.80;83.80;;;;;;5091122;28;20522;-77
2022/03/24 07:55:45;;;;;;;8.10;6.13;;;19.90;83.70;;;;;;5092417;28;20039;-77
2022/03/24 07:58:12;;;;;;;7.25;6.13;;;19.90;82.90;;;;;;5091290;28;20114;-76
2022/03/24 08:00:39;;;;;;;8.80;5.32;;;19.40;84.10;;;;;;5088979;28;20035;-77
2022/03/24 08:03:10;;;;;;;7.38;5.88;;;19.00;82.90;;;;;;5090046;28;20032;-76
2022/03/24 08:05:35;;;;;;;7.07;6.10;;;19.10;85.70;;;;;;5090809;28;20036;-77
2022/03/24 08:08:04;;;;;;;8.70;5.90;;;19.50;84.70;;;;;;5092070;28;20567;-77
2022/03/24 08:10:30;;;;;;;6.85;5.95;;;19.30;84.40;;;;;;5089898;28;20032;-77
2022/03/24 08:12:55;;;;;;;8.63;6.40;;;18.00;87.00;;;;;;5090713;28;20020;-77
2022/03/24 08:15:21;;;;;;;8.60;6.03;;;18.40;87.40;;;;;;5090712;28;20032;-77
2022/03/24 08:17:47;;;;;;;8.48;6.65;;;17.90;87.30;;;;;;5089723;28;20432;-77
2022/03/24 08:20:14;;;;;;;9.30;5.93;;;18.70;87.20;;;;;;5090448;28;20081;-77
2022/03/24 08:22:40;;;;;;;10.57;6.07;;;17.40;87.80;;;;;;5084412;28;20022;-77
2022/03/24 08:25:08;;;;;;;11.48;6.40;;;16.10;90.80;;;;;;5090625;28;20103;-76
2022/03/24 08:27:37;;;;;;;9.27;5.90;;;16.20;90.80;;;;;;5090782;28;20103;-77
2022/03/24 08:30:05;;;;;;;11.60;6.45;;;16.00;91.50;;;;;;5090767;28;20093;-77
2022/03/24 08:32:30;;;;;;;8.63;6.57;;;16.10;90.80;;;;;;5087158;28;20029;-77
2022/03/24 08:34:56;;;;;;;10.63;6.78;;;16.10;91.10;;;;;;5091341;28;20401;-77
2022/03/24 08:37:22;;;;;;;12.73;6.32;;;16.00;90.70;;;;;;5090001;28;20382;-76
2022/03/24 08:39:47;;;;;;;7.53;6.22;;;15.40;91.70;;;;;;5081831;28;20032;-77
2022/03/24 08:42:13;;;;;;;7.90;5.82;;;15.20;91.90;;;;;;5090497;28;20055;-76
2022/03/24 08:44:39;;;;;;;7.95;5.95;;;15.60;91.80;;;;;;5090478;28;20161;-76
2022/03/24 08:47:05;;;;;;;8.25;6.93;;;14.70;92.10;;;;;;5091277;28;20565;-76
2022/03/24 08:49:31;;;;;;;8.00;6.15;;;14.90;91.80;;;;;;5074052;28;20024;-76
2022/03/24 08:51:57;;;;;;;7.93;6.15;;;15.30;92.10;;;;;;5089172;28;20082;-76
2022/03/24 08:54:24;;;;;;;7.28;5.85;;;15.50;91.70;;;;;;5089086;28;20024;-76
2022/03/24 08:56:50;;;;;;;8.45;6.25;;;15.70;91.40;;;;;;5090306;28;20017;-77
2022/03/24 08:59:16;;;;;;;8.20;6.20;;;15.90;91.30;;;;;;5090317;28;20024;-76
2022/03/24 09:01:43;;;;;;;8.23;6.07;;;15.70;91.30;;;;;;5091102;28;20023;-76
2022/03/24 09:04:10;;;;;;;9.57;6.80;;;15.90;91.00;;;;;;5090193;28;20024;-77
2022/03/24 09:06:37;;;;;;;13.30;6.82;;;15.70;91.20;;;;;;5089597;28;20520;-76
2022/03/24 09:09:03;;;;;;;9.25;6.05;;;15.70;91.90;;;;;;5090249;28;20031;-76
2022/03/24 09:11:29;;;;;;;8.93;6.47;;;15.50;91.00;;;;;;5089853;28;20073;-76
2022/03/24 09:13:55;;;;;;;7.80;6.15;;;16.10;91.00;;;;;;5091017;28;20036;-77
2022/03/24 09:16:21;;;;;;;9.52;6.15;;;16.00;91.10;;;;;;5089722;28;20028;-75
2022/03/24 09:18:47;;;;;;;12.65;6.47;;;15.90;91.10;;;;;;5089977;28;20085;-77
2022/03/24 09:21:14;;;;;;;9.48;6.68;;;16.50;90.60;;;;;;5080309;28;20039;-77
2022/03/24 09:23:39;;;;;;;8.18;6.20;;;16.40;90.70;;;;;;5074716;28;20020;-76
2022/03/24 09:26:05;;;;;;;7.45;6.05;;;15.70;90.80;;;;;;5090196;28;20515;-76
2022/03/24 09:28:32;;;;;;;9.57;5.90;;;16.10;91.00;;;;;;5077249;28;20402;-76
2022/03/24 09:30:58;;;;;;;7.43;5.78;;;16.10;90.60;;;;;;5085275;28;20111;-76
2022/03/24 09:33:24;;;;;;;8.50;6.20;;;16.60;90.90;;;;;;5089659;28;20039;-76
2022/03/24 09:35:50;;;;;;;7.93;5.90;;;16.40;91.20;;;;;;5089057;28;20024;-76
2022/03/24 09:38:17;;;;;;;9.13;6.72;;;16.20;91.10;;;;;;5088525;28;20118;-76
2022/03/24 09:40:43;;;;;;;10.05;6.55;;;16.60;90.70;;;;;;5090708;28;20055;-76
2022/03/24 09:43:09;;;;;;;7.70;5.82;;;16.50;90.80;;;;;;5089453;28;20028;-76
2022/03/24 09:45:37;;;;;;;11.13;6.43;;;16.20;90.80;;;;;;5089772;28;20028;-77
2022/03/24 09:48:10;;;;;;;8.23;5.93;;;16.80;91.10;;;;;;5082059;28;20020;-77
2022/03/24 09:50:37;;;;;;;7.05;5.82;;;16.80;90.10;;;;;;5078775;28;20024;-77
2022/03/24 09:53:03;;;;;;;6.72;5.85;;;16.70;90.70;;;;;;5086631;28;20101;-76
2022/03/24 09:55:32;;;;;;;8.48;5.75;;;16.80;90.20;;;;;;5089548;28;20024;-76
2022/03/24 09:57:59;;;;;;;7.35;5.60;;;16.30;90.30;;;;;;5084315;28;20028;-76
2022/03/24 10:00:26;;;;;;;9.10;6.05;;;17.00;90.70;;;;;;5089243;28;20089;-76
2022/03/24 10:03:14;;;;;;;8.18;6.15;;;17.40;89.80;;;;;;5088503;28;20514;-76
2022/03/24 10:06:07;;;;;;;7.50;6.30;;;17.20;90.10;;;;;;5074179;28;24424;-76
2022/03/24 10:08:34;;;;;;;9.35;5.80;;;16.30;91.50;;;;;;5087613;28;20024;-76
2022/03/24 10:11:01;;;;;;;7.32;6.18;;;16.40;90.40;;;;;;5090608;28;20024;-76
2022/03/24 10:13:43;;;;;;;9.48;5.90;;;16.30;91.20;;;;;;5088722;28;20829;-76
2022/03/24 10:16:09;;;;;;;8.50;6.30;;;16.80;90.80;;;;;;5089231;28;20078;-76
2022/03/24 10:18:35;;;;;;;8.32;5.75;;;16.70;91.20;;;;;;5089236;28;20026;-76
2022/03/24 10:21:03;;;;;;;7.45;5.55;;;16.60;90.30;;;;;;5080363;28;20029;-76
2022/03/24 10:23:33;;;;;;;6.90;5.03;;;16.80;91.60;;;;;;5088943;28;20028;-76
2022/03/24 10:26:05;;;;;;;5.63;4.72;;;16.90;90.30;;;;;;5090475;28;20096;-76
2022/03/24 10:28:31;;;;;;;7.85;5.97;;;17.20;90.40;;;;;;5081279;28;20027;-76
2022/03/24 10:31:03;;;;;;;9.25;5.25;;;16.50;89.50;;;;;;5089185;28;20028;-76
2022/03/24 10:33:37;;;;;;;8.52;5.72;;;16.20;90.50;;;;;;5080807;28;20066;-76
2022/03/24 10:36:18;;;;;;;6.93;5.35;;;16.30;89.70;;;;;;5089872;28;20063;-76
2022/03/24 10:38:45;;;;;;;7.35;5.38;;;16.60;90.30;;;;;;5078217;28;20023;-75
2022/03/24 10:41:22;;;;;;;10.90;5.55;;;15.70;90.40;;;;;;5092888;28;20567;-76
2022/03/24 10:43:50;;;;;;;8.10;5.65;;;16.30;91.00;;;;;;5094219;28;20016;-76
2022/03/24 10:46:21;;;;;;;5.88;5.03;;;16.70;90.80;;;;;;5084133;28;20114;-76
2022/03/24 10:48:48;;;;;;;7.70;5.38;;;16.50;90.80;;;;;;5087293;28;20048;-76
2022/03/24 10:51:27;;;;;;;6.95;5.60;;;16.40;90.90;;;;;;5090738;28;20125;-76
2022/03/24 10:54:29;;;;;;;6.28;5.47;;;16.80;89.40;;;;;;5092597;28;20534;-76
2022/03/24 10:57:03;;;;;;;7.38;4.90;;;16.50;90.50;;;;;;5085819;28;20070;-76
2022/03/24 10:59:58;;;;;;;5.82;4.50;;;16.50;90.60;;;;;;5091756;28;20036;-76
2022/03/24 11:02:27;;;;;;;7.75;5.75;;;16.40;90.10;;;;;;5091358;28;20051;-76
2022/03/24 11:04:53;;;;;;;9.93;5.82;;;16.30;90.30;;;;;;5093754;28;20047;-76
2022/03/24 11:07:28;;;;;;;7.47;5.13;;;15.90;90.00;;;;;;5090275;28;20051;-76
2022/03/24 11:09:53;;;;;;;7.88;5.43;;;16.30;90.20;;;;;;5092157;28;20020;-76
2022/03/24 11:12:23;;;;;;;7.50;5.40;;;16.30;91.70;;;;;;5089823;28;20024;-76
2022/03/24 11:14:51;;;;;;;8.80;5.45;;;16.50;91.00;;;;;;5092074;28;20024;-76
2022/03/24 11:17:18;;;;;;;7.78;5.07;;;15.90;91.40;;;;;;5090953;28;20101;-76
2022/03/24 11:20:03;;;;;;;6.38;5.72;;;16.40;91.30;;;;;;5075068;28;20079;-76
2022/03/24 11:22:52;;;;;;;6.85;5.38;;;16.30;91.30;;;;;;5075678;28;20023;-76
2022/03/24 11:25:18;;;;;;;7.75;5.68;;;16.00;91.30;;;;;;5090103;28;20107;-76
2022/03/24 11:27:45;;;;;;;6.10;5.20;;;15.80;91.60;;;;;;5086373;28;20024;-76
2022/03/24 11:30:12;;;;;;;8.27;5.68;;;15.40;91.30;;;;;;5091866;28;20358;-76
2022/03/24 11:32:41;;;;;;;7.13;5.40;;;15.80;92.90;;;;;;5091780;28;20020;-76
2022/03/24 11:35:08;;;;;;;6.40;5.13;;;16.10;92.10;;;;;;5090883;28;20035;-76
2022/03/24 11:37:35;;;;;;;6.93;5.53;;;16.10;91.90;;;;;;5083736;28;20042;-76
2022/03/24 11:40:05;;;;;;;7.47;5.30;;;16.40;91.30;;;;;;5090177;28;20036;-75
2022/03/24 11:42:34;;;;;;;6.82;4.70;;;16.80;91.70;;;;;;5091364;28;20024;-76
2022/03/24 11:45:34;;;;;;;9.00;5.40;;;16.80;91.00;;;;;;5091046;28;20089;-76
2022/03/24 11:48:08;;;;;;;9.30;5.75;;;16.70;90.60;;;;;;5079616;28;20086;-76
2022/03/24 11:50:53;;;;;;;9.02;5.97;;;16.60;90.50;;;;;;5079289;28;20035;-76
2022/03/24 11:53:31;;;;;;;7.85;5.13;;;16.40;90.50;;;;;;5089117;28;20525;-76
2022/03/24 11:56:03;;;;;;;7.63;5.35;;;16.60;90.50;;;;;;5092334;28;20036;-76
2022/03/24 11:58:29;;;;;;;9.02;5.20;;;16.40;90.80;;;;;;5089656;28;20024;-76
2022/03/24 12:00:56;;;;;;;7.00;5.55;;;16.30;90.90;;;;;;5091087;28;20202;-76
2022/03/24 12:03:41;;;;;;;8.43;4.93;;;16.50;91.30;;;;;;5090456;28;20119;-76
2022/03/24 12:06:10;;;;;;;6.35;4.97;;;16.70;91.50;;;;;;5089815;28;20040;-76
2022/03/24 12:09:00;;;;;;;7.43;4.80;;;16.90;91.00;;;;;;5087060;28;20025;-75
2022/03/24 12:11:32;;;;;;;10.52;5.30;;;17.10;91.60;;;;;;5089856;28;20552;-75
2022/03/24 12:14:07;;;;;;;5.90;4.85;;;17.40;90.10;;;;;;5092166;28;20032;-76
2022/03/24 12:16:38;;;;;;;6.30;5.15;;;17.40;89.60;;;;;;5083068;28;20036;-76
2022/03/24 12:19:04;;;;;;;7.05;5.20;;;17.10;90.60;;;;;;5090935;28;20028;-76
2022/03/24 12:21:31;;;;;;;8.68;5.20;;;17.20;90.40;;;;;;5082137;28;20112;-76
2022/03/24 12:24:09;;;;;;;9.68;5.32;;;17.10;91.30;;;;;;5089604;28;20028;-77
2022/03/24 12:26:55;;;;;;;6.20;5.05;;;17.30;91.10;;;;;;5074676;28;20560;-75
2022/03/24 12:29:22;;;;;;;7.30;5.50;;;16.90;90.30;;;;;;5087747;28;20626;-76
2022/03/24 12:32:00;;;;;;;5.45;4.88;;;16.60;91.00;;;;;;5091861;28;20031;-77
2022/03/24 12:34:51;;;;;;;7.25;4.93;;;16.90;91.00;;;;;;5089817;28;20032;-76
2022/03/24 12:37:31;;;;;;;11.10;5.47;;;16.90;90.30;;;;;;5089471;28;20040;-76
2022/03/24 12:40:05;;;;;;;6.30;5.32;;;16.90;91.80;;;;;;5081862;28;20502;-75
2022/03/24 12:42:49;;;;;;;8.70;5.47;;;16.80;90.40;;;;;;5090073;28;20056;-75
2022/03/24 12:45:27;;;;;;;7.28;5.30;;;17.30;90.60;;;;;;5090425;28;20024;-76
2022/03/24 12:48:07;;;;;;;9.95;5.15;;;16.80;91.30;;;;;;5090680;28;20028;-75
2022/03/24 12:50:42;;;;;;;6.53;5.03;;;16.90;91.60;;;;;;5081879;28;20517;-76
2022/03/24 12:53:09;;;;;;;6.60;5.03;;;17.30;91.40;;;;;;5090891;28;20076;-76
2022/03/24 12:55:37;;;;;;;8.00;5.55;;;17.10;90.90;;;;;;5091100;28;20090;-76
2022/03/24 12:58:11;;;;;;;7.80;5.22;;;16.90;91.00;;;;;;5090304;28;20247;-76